sensor_id;sensor_type;location;lat;lon;timestamp;P1;durP1;ratioP1;P2;durP2;ratioP2
57309;SDS011;43153;50.984;18.204;2023-08-07T00:00:20;6.40;;;2.30;;
57309;SDS011;43153;50.984;18.204;2023-08-07T00:02:54;5.10;;;2.00;;
57309;SDS011;43153;50.984;18.204;2023-08-07T00:05:20;5.40;;;2.50;;
57309;SDS011;43153;50.984;18.204;2023-08-07T00:07:50;6.00;;;2.20;;
57309;SDS011;43153;50.984;18.204;2023-08-07T00:10:17;7.50;;;3.00;;
57309;SDS011;43153;50.984;18.204;2023-08-07T00:12:46;7.10;;;2.10;;
57309;SDS011;43153;50.984;18.204;2023-08-07T00:15:25;6.10;;;2.60;;
57309;SDS011;43153;50.984;18.204;2023-08-07T00:17:54;7.20;;;3.20;;
57309;SDS011;43153;50.984;18.204;2023-08-07T00:20:23;6.90;;;2.50;;
57309;SDS011;43153;50.984;18.204;2023-08-07T00:22:50;10.30;;;2.60;;
57309;SDS011;43153;50.984;18.204;2023-08-07T00:25:17;6.30;;;2.70;;
57309;SDS011;43153;50.984;18.204;2023-08-07T00:27:45;8.70;;;3.30;;
57309;SDS011;43153;50.984;18.204;2023-08-07T00:30:14;7.70;;;3.40;;
57309;SDS011;43153;50.984;18.204;2023-08-07T00:32:45;8.20;;;3.90;;
57309;SDS011;43153;50.984;18.204;2023-08-07T00:35:18;7.10;;;3.20;;
57309;SDS011;43153;50.984;18.204;2023-08-07T00:37:44;10.50;;;3.50;;
57309;SDS011;43153;50.984;18.204;2023-08-07T00:40:22;6.60;;;2.20;;
57309;SDS011;43153;50.984;18.204;2023-08-07T00:42:48;5.30;;;2.20;;
57309;SDS011;43153;50.984;18.204;2023-08-07T00:45:17;7.90;;;2.40;;
57309;SDS011;43153;50.984;18.204;2023-08-07T00:47:44;7.10;;;2.80;;
57309;SDS011;43153;50.984;18.204;2023-08-07T00:50:26;4.60;;;2.10;;
57309;SDS011;43153;50.984;18.204;2023-08-07T00:52:52;8.30;;;2.80;;
57309;SDS011;43153;50.984;18.204;2023-08-07T00:55:19;10.20;;;2.30;;
57309;SDS011;43153;50.984;18.204;2023-08-07T00:57:46;6.10;;;2.30;;
57309;SDS011;43153;50.984;18.204;2023-08-07T01:00:13;5.30;;;2.50;;
57309;SDS011;43153;50.984;18.204;2023-08-07T01:02:42;7.00;;;1.80;;
57309;SDS011;43153;50.984;18.204;2023-08-07T01:05:10;6.00;;;2.50;;
57309;SDS011;43153;50.984;18.204;2023-08-07T01:07:50;5.90;;;2.30;;
57309;SDS011;43153;50.984;18.204;2023-08-07T01:10:25;7.30;;;2.80;;
57309;SDS011;43153;50.984;18.204;2023-08-07T01:13:10;8.30;;;3.00;;
57309;SDS011;43153;50.984;18.204;2023-08-07T01:15:47;11.90;;;3.00;;
57309;SDS011;43153;50.984;18.204;2023-08-07T01:18:22;10.40;;;2.90;;
57309;SDS011;43153;50.984;18.204;2023-08-07T01:20:48;4.90;;;2.50;;
57309;SDS011;43153;50.984;18.204;2023-08-07T01:23:20;6.80;;;2.50;;
57309;SDS011;43153;50.984;18.204;2023-08-07T01:25:53;6.50;;;2.60;;
57309;SDS011;43153;50.984;18.204;2023-08-07T01:28:32;4.60;;;2.20;;
57309;SDS011;43153;50.984;18.204;2023-08-07T01:31:03;6.30;;;2.50;;
57309;SDS011;43153;50.984;18.204;2023-08-07T01:33:46;5.40;;;2.10;;
57309;SDS011;43153;50.984;18.204;2023-08-07T01:36:17;7.00;;;2.40;;
57309;SDS011;43153;50.984;18.204;2023-08-07T01:38:48;6.10;;;2.30;;
57309;SDS011;43153;50.984;18.204;2023-08-07T01:41:15;4.70;;;2.00;;
57309;SDS011;43153;50.984;18.204;2023-08-07T01:43:42;10.30;;;2.40;;
57309;SDS011;43153;50.984;18.204;2023-08-07T01:46:16;5.00;;;1.80;;
57309;SDS011;43153;50.984;18.204;2023-08-07T01:48:44;9.10;;;2.50;;
57309;SDS011;43153;50.984;18.204;2023-08-07T01:51:11;7.70;;;2.40;;
57309;SDS011;43153;50.984;18.204;2023-08-07T01:53:38;10.10;;;2.10;;
57309;SDS011;43153;50.984;18.204;2023-08-07T01:56:07;9.90;;;2.50;;
57309;SDS011;43153;50.984;18.204;2023-08-07T01:58:40;6.10;;;1.60;;
57309;SDS011;43153;50.984;18.204;2023-08-07T02:01:10;7.80;;;2.40;;
57309;SDS011;43153;50.984;18.204;2023-08-07T02:03:36;8.50;;;2.60;;
57309;SDS011;43153;50.984;18.204;2023-08-07T02:06:08;5.20;;;1.80;;
57309;SDS011;43153;50.984;18.204;2023-08-07T02:08:39;6.20;;;2.20;;
57309;SDS011;43153;50.984;18.204;2023-08-07T02:11:15;5.60;;;2.20;;
57309;SDS011;43153;50.984;18.204;2023-08-07T02:13:52;7.90;;;1.70;;
57309;SDS011;43153;50.984;18.204;2023-08-07T02:16:25;9.50;;;2.90;;
57309;SDS011;43153;50.984;18.204;2023-08-07T02:18:55;7.50;;;2.70;;
57309;SDS011;43153;50.984;18.204;2023-08-07T02:21:24;6.10;;;2.30;;
57309;SDS011;43153;50.984;18.204;2023-08-07T02:23:53;5.40;;;2.00;;
57309;SDS011;43153;50.984;18.204;2023-08-07T02:26:24;7.70;;;2.20;;
57309;SDS011;43153;50.984;18.204;2023-08-07T02:28:52;6.50;;;1.90;;
57309;SDS011;43153;50.984;18.204;2023-08-07T02:31:19;5.00;;;2.00;;
57309;SDS011;43153;50.984;18.204;2023-08-07T02:33:45;4.90;;;2.10;;
57309;SDS011;43153;50.984;18.204;2023-08-07T02:36:16;5.10;;;2.00;;
57309;SDS011;43153;50.984;18.204;2023-08-07T02:38:42;8.00;;;1.80;;
57309;SDS011;43153;50.984;18.204;2023-08-07T02:41:15;7.50;;;1.90;;
57309;SDS011;43153;50.984;18.204;2023-08-07T02:43:45;6.70;;;2.40;;
57309;SDS011;43153;50.984;18.204;2023-08-07T02:46:16;4.50;;;2.00;;
57309;SDS011;43153;50.984;18.204;2023-08-07T02:48:47;8.60;;;2.00;;
57309;SDS011;43153;50.984;18.204;2023-08-07T02:51:20;5.40;;;1.50;;
57309;SDS011;43153;50.984;18.204;2023-08-07T02:53:54;4.50;;;2.00;;
57309;SDS011;43153;50.984;18.204;2023-08-07T02:56:20;3.80;;;1.60;;
57309;SDS011;43153;50.984;18.204;2023-08-07T02:58:50;5.30;;;2.00;;
57309;SDS011;43153;50.984;18.204;2023-08-07T03:01:27;7.50;;;2.20;;
57309;SDS011;43153;50.984;18.204;2023-08-07T03:03:55;3.50;;;1.50;;
57309;SDS011;43153;50.984;18.204;2023-08-07T03:06:24;7.60;;;1.70;;
57309;SDS011;43153;50.984;18.204;2023-08-07T03:08:52;4.30;;;1.70;;
57309;SDS011;43153;50.984;18.204;2023-08-07T03:11:20;5.40;;;1.50;;
57309;SDS011;43153;50.984;18.204;2023-08-07T03:13:50;8.40;;;1.90;;
57309;SDS011;43153;50.984;18.204;2023-08-07T03:16:17;5.00;;;1.70;;
57309;SDS011;43153;50.984;18.204;2023-08-07T03:18:50;10.30;;;2.80;;
57309;SDS011;43153;50.984;18.204;2023-08-07T03:21:17;6.70;;;2.40;;
57309;SDS011;43153;50.984;18.204;2023-08-07T03:23:47;7.70;;;2.00;;
57309;SDS011;43153;50.984;18.204;2023-08-07T03:26:18;4.90;;;2.00;;
57309;SDS011;43153;50.984;18.204;2023-08-07T03:28:48;5.40;;;2.00;;
57309;SDS011;43153;50.984;18.204;2023-08-07T03:31:16;5.00;;;2.00;;
57309;SDS011;43153;50.984;18.204;2023-08-07T03:33:46;8.70;;;1.90;;
57309;SDS011;43153;50.984;18.204;2023-08-07T03:36:12;4.60;;;1.90;;
57309;SDS011;43153;50.984;18.204;2023-08-07T03:38:50;5.30;;;2.30;;
57309;SDS011;43153;50.984;18.204;2023-08-07T03:41:20;5.00;;;2.00;;
57309;SDS011;43153;50.984;18.204;2023-08-07T03:43:53;5.70;;;2.40;;
57309;SDS011;43153;50.984;18.204;2023-08-07T03:46:21;5.50;;;1.60;;
57309;SDS011;43153;50.984;18.204;2023-08-07T03:49:06;5.60;;;2.20;;
57309;SDS011;43153;50.984;18.204;2023-08-07T03:51:34;5.30;;;2.10;;
57309;SDS011;43153;50.984;18.204;2023-08-07T03:54:01;4.70;;;1.80;;
57309;SDS011;43153;50.984;18.204;2023-08-07T03:56:28;5.30;;;2.40;;
57309;SDS011;43153;50.984;18.204;2023-08-07T03:58:59;8.20;;;2.30;;
57309;SDS011;43153;50.984;18.204;2023-08-07T04:01:26;5.70;;;1.90;;
57309;SDS011;43153;50.984;18.204;2023-08-07T04:03:56;5.20;;;1.80;;
57309;SDS011;43153;50.984;18.204;2023-08-07T04:06:26;5.30;;;1.60;;
57309;SDS011;43153;50.984;18.204;2023-08-07T04:08:54;5.90;;;2.40;;
57309;SDS011;43153;50.984;18.204;2023-08-07T04:11:25;7.10;;;2.60;;
57309;SDS011;43153;50.984;18.204;2023-08-07T04:14:01;5.30;;;2.00;;
57309;SDS011;43153;50.984;18.204;2023-08-07T04:16:32;4.60;;;1.50;;
57309;SDS011;43153;50.984;18.204;2023-08-07T04:19:00;7.50;;;2.30;;
57309;SDS011;43153;50.984;18.204;2023-08-07T04:21:30;4.60;;;1.80;;
57309;SDS011;43153;50.984;18.204;2023-08-07T04:23:56;7.50;;;1.60;;
57309;SDS011;43153;50.984;18.204;2023-08-07T04:26:26;6.70;;;2.00;;
57309;SDS011;43153;50.984;18.204;2023-08-07T04:28:54;5.50;;;1.60;;
57309;SDS011;43153;50.984;18.204;2023-08-07T04:31:29;3.60;;;1.40;;
57309;SDS011;43153;50.984;18.204;2023-08-07T04:34:03;5.40;;;1.70;;
57309;SDS011;43153;50.984;18.204;2023-08-07T04:36:33;8.80;;;2.20;;
57309;SDS011;43153;50.984;18.204;2023-08-07T04:39:00;8.60;;;1.60;;
57309;SDS011;43153;50.984;18.204;2023-08-07T04:41:27;3.20;;;1.30;;
57309;SDS011;43153;50.984;18.204;2023-08-07T04:43:57;4.90;;;1.20;;
57309;SDS011;43153;50.984;18.204;2023-08-07T04:46:25;4.20;;;1.10;;
57309;SDS011;43153;50.984;18.204;2023-08-07T04:48:52;4.70;;;1.30;;
57309;SDS011;43153;50.984;18.204;2023-08-07T04:51:27;5.40;;;1.60;;
57309;SDS011;43153;50.984;18.204;2023-08-07T04:53:55;5.40;;;1.50;;
57309;SDS011;43153;50.984;18.204;2023-08-07T04:56:26;5.40;;;1.60;;
57309;SDS011;43153;50.984;18.204;2023-08-07T04:58:54;4.70;;;1.40;;
57309;SDS011;43153;50.984;18.204;2023-08-07T05:01:21;5.60;;;1.60;;
57309;SDS011;43153;50.984;18.204;2023-08-07T05:03:50;5.20;;;1.90;;
57309;SDS011;43153;50.984;18.204;2023-08-07T05:06:17;6.30;;;1.60;;
57309;SDS011;43153;50.984;18.204;2023-08-07T05:08:45;5.20;;;1.40;;
57309;SDS011;43153;50.984;18.204;2023-08-07T05:11:15;8.10;;;1.60;;
57309;SDS011;43153;50.984;18.204;2023-08-07T05:13:45;4.50;;;1.30;;
57309;SDS011;43153;50.984;18.204;2023-08-07T05:16:17;5.60;;;1.80;;
57309;SDS011;43153;50.984;18.204;2023-08-07T05:18:48;6.00;;;1.80;;
57309;SDS011;43153;50.984;18.204;2023-08-07T05:21:14;7.10;;;1.80;;
57309;SDS011;43153;50.984;18.204;2023-08-07T05:23:40;6.20;;;1.40;;
57309;SDS011;43153;50.984;18.204;2023-08-07T05:26:21;6.70;;;1.90;;
57309;SDS011;43153;50.984;18.204;2023-08-07T05:28:56;7.50;;;1.80;;
57309;SDS011;43153;50.984;18.204;2023-08-07T05:31:25;6.20;;;1.80;;
57309;SDS011;43153;50.984;18.204;2023-08-07T05:33:58;6.40;;;1.70;;
57309;SDS011;43153;50.984;18.204;2023-08-07T05:36:27;4.60;;;1.80;;
57309;SDS011;43153;50.984;18.204;2023-08-07T05:38:58;4.20;;;1.80;;
57309;SDS011;43153;50.984;18.204;2023-08-07T05:41:25;5.60;;;1.80;;
57309;SDS011;43153;50.984;18.204;2023-08-07T05:43:53;10.00;;;2.60;;
57309;SDS011;43153;50.984;18.204;2023-08-07T05:46:35;7.50;;;2.20;;
57309;SDS011;43153;50.984;18.204;2023-08-07T05:49:09;6.40;;;2.20;;
57309;SDS011;43153;50.984;18.204;2023-08-07T05:51:41;5.00;;;2.20;;
57309;SDS011;43153;50.984;18.204;2023-08-07T05:54:08;5.70;;;2.10;;
57309;SDS011;43153;50.984;18.204;2023-08-07T05:56:35;5.00;;;2.00;;
57309;SDS011;43153;50.984;18.204;2023-08-07T05:59:02;3.60;;;1.60;;
57309;SDS011;43153;50.984;18.204;2023-08-07T06:01:29;6.20;;;1.90;;
57309;SDS011;43153;50.984;18.204;2023-08-07T06:03:59;5.40;;;2.20;;
57309;SDS011;43153;50.984;18.204;2023-08-07T06:06:28;6.80;;;3.10;;
57309;SDS011;43153;50.984;18.204;2023-08-07T06:08:56;5.10;;;2.30;;
57309;SDS011;43153;50.984;18.204;2023-08-07T06:11:24;6.30;;;2.40;;
57309;SDS011;43153;50.984;18.204;2023-08-07T06:13:50;10.40;;;4.10;;
57309;SDS011;43153;50.984;18.204;2023-08-07T06:16:18;8.90;;;3.90;;
57309;SDS011;43153;50.984;18.204;2023-08-07T06:18:49;10.10;;;3.30;;
57309;SDS011;43153;50.984;18.204;2023-08-07T06:21:16;6.80;;;2.90;;
57309;SDS011;43153;50.984;18.204;2023-08-07T06:23:44;5.80;;;2.80;;
57309;SDS011;43153;50.984;18.204;2023-08-07T06:26:16;6.30;;;2.00;;
57309;SDS011;43153;50.984;18.204;2023-08-07T06:28:45;4.90;;;1.80;;
57309;SDS011;43153;50.984;18.204;2023-08-07T06:31:12;6.00;;;2.20;;
57309;SDS011;43153;50.984;18.204;2023-08-07T06:33:41;7.20;;;1.60;;
57309;SDS011;43153;50.984;18.204;2023-08-07T06:36:10;8.80;;;2.50;;
57309;SDS011;43153;50.984;18.204;2023-08-07T06:38:42;7.80;;;3.70;;
57309;SDS011;43153;50.984;18.204;2023-08-07T06:41:13;6.90;;;3.50;;
57309;SDS011;43153;50.984;18.204;2023-08-07T06:43:40;9.80;;;4.20;;
57309;SDS011;43153;50.984;18.204;2023-08-07T06:46:12;6.30;;;2.50;;
57309;SDS011;43153;50.984;18.204;2023-08-07T06:48:45;8.60;;;1.90;;
57309;SDS011;43153;50.984;18.204;2023-08-07T06:51:11;5.20;;;1.80;;
57309;SDS011;43153;50.984;18.204;2023-08-07T06:53:37;8.20;;;1.50;;
57309;SDS011;43153;50.984;18.204;2023-08-07T06:56:07;4.80;;;1.80;;
57309;SDS011;43153;50.984;18.204;2023-08-07T06:58:40;5.50;;;2.00;;
57309;SDS011;43153;50.984;18.204;2023-08-07T07:01:09;5.20;;;1.70;;
57309;SDS011;43153;50.984;18.204;2023-08-07T07:03:34;4.80;;;1.90;;
57309;SDS011;43153;50.984;18.204;2023-08-07T07:06:05;5.80;;;2.10;;
57309;SDS011;43153;50.984;18.204;2023-08-07T07:08:35;5.40;;;2.00;;
57309;SDS011;43153;50.984;18.204;2023-08-07T07:11:02;9.60;;;3.80;;
57309;SDS011;43153;50.984;18.204;2023-08-07T07:13:30;10.50;;;3.30;;
57309;SDS011;43153;50.984;18.204;2023-08-07T07:16:01;6.40;;;2.60;;
57309;SDS011;43153;50.984;18.204;2023-08-07T07:18:30;7.70;;;2.60;;
57309;SDS011;43153;50.984;18.204;2023-08-07T07:20:58;5.30;;;2.10;;
57309;SDS011;43153;50.984;18.204;2023-08-07T07:23:29;6.20;;;2.10;;
57309;SDS011;43153;50.984;18.204;2023-08-07T07:26:02;7.90;;;2.10;;
57309;SDS011;43153;50.984;18.204;2023-08-07T07:28:39;8.70;;;2.00;;
57309;SDS011;43153;50.984;18.204;2023-08-07T07:31:06;6.70;;;1.90;;
57309;SDS011;43153;50.984;18.204;2023-08-07T07:33:41;5.80;;;2.20;;
57309;SDS011;43153;50.984;18.204;2023-08-07T07:36:17;8.00;;;1.80;;
57309;SDS011;43153;50.984;18.204;2023-08-07T07:38:48;5.40;;;1.90;;
57309;SDS011;43153;50.984;18.204;2023-08-07T07:41:26;8.00;;;2.10;;
57309;SDS011;43153;50.984;18.204;2023-08-07T07:43:56;5.70;;;1.90;;
57309;SDS011;43153;50.984;18.204;2023-08-07T07:46:32;8.50;;;2.40;;
57309;SDS011;43153;50.984;18.204;2023-08-07T07:49:12;5.40;;;2.10;;
57309;SDS011;43153;50.984;18.204;2023-08-07T07:51:42;5.50;;;2.50;;
57309;SDS011;43153;50.984;18.204;2023-08-07T07:54:10;5.60;;;2.60;;
57309;SDS011;43153;50.984;18.204;2023-08-07T07:56:36;5.70;;;2.20;;
57309;SDS011;43153;50.984;18.204;2023-08-07T07:59:05;7.20;;;2.40;;
57309;SDS011;43153;50.984;18.204;2023-08-07T08:01:31;6.50;;;1.90;;
57309;SDS011;43153;50.984;18.204;2023-08-07T08:04:00;5.60;;;2.50;;
57309;SDS011;43153;50.984;18.204;2023-08-07T08:06:28;5.30;;;2.00;;
57309;SDS011;43153;50.984;18.204;2023-08-07T08:08:56;3.70;;;1.40;;
57309;SDS011;43153;50.984;18.204;2023-08-07T08:11:23;3.80;;;1.20;;
57309;SDS011;43153;50.984;18.204;2023-08-07T08:13:51;5.20;;;1.40;;
57309;SDS011;43153;50.984;18.204;2023-08-07T08:16:20;4.20;;;1.50;;
57309;SDS011;43153;50.984;18.204;2023-08-07T08:18:48;3.10;;;1.10;;
57309;SDS011;43153;50.984;18.204;2023-08-07T08:21:14;5.60;;;1.40;;
57309;SDS011;43153;50.984;18.204;2023-08-07T08:23:44;3.90;;;1.40;;
57309;SDS011;43153;50.984;18.204;2023-08-07T08:26:15;4.10;;;1.30;;
57309;SDS011;43153;50.984;18.204;2023-08-07T08:28:42;3.10;;;1.10;;
57309;SDS011;43153;50.984;18.204;2023-08-07T08:31:09;3.30;;;1.30;;
57309;SDS011;43153;50.984;18.204;2023-08-07T08:33:35;4.60;;;1.40;;
57309;SDS011;43153;50.984;18.204;2023-08-07T08:36:04;2.60;;;1.10;;
57309;SDS011;43153;50.984;18.204;2023-08-07T08:38:30;5.60;;;1.60;;
57309;SDS011;43153;50.984;18.204;2023-08-07T08:41:00;3.30;;;1.00;;
57309;SDS011;43153;50.984;18.204;2023-08-07T08:43:32;4.20;;;1.60;;
57309;SDS011;43153;50.984;18.204;2023-08-07T08:46:01;3.80;;;1.60;;
57309;SDS011;43153;50.984;18.204;2023-08-07T08:48:33;5.40;;;1.40;;
57309;SDS011;43153;50.984;18.204;2023-08-07T08:51:01;6.80;;;1.70;;
57309;SDS011;43153;50.984;18.204;2023-08-07T08:53:30;4.60;;;1.50;;
57309;SDS011;43153;50.984;18.204;2023-08-07T08:55:57;4.20;;;1.50;;
57309;SDS011;43153;50.984;18.204;2023-08-07T08:58:26;5.30;;;1.40;;
57309;SDS011;43153;50.984;18.204;2023-08-07T09:00:56;3.80;;;1.10;;
57309;SDS011;43153;50.984;18.204;2023-08-07T09:03:23;4.80;;;1.20;;
57309;SDS011;43153;50.984;18.204;2023-08-07T09:05:52;4.40;;;1.60;;
57309;SDS011;43153;50.984;18.204;2023-08-07T09:08:25;3.20;;;1.30;;
57309;SDS011;43153;50.984;18.204;2023-08-07T09:10:57;5.60;;;1.50;;
57309;SDS011;43153;50.984;18.204;2023-08-07T09:13:26;3.30;;;1.10;;
57309;SDS011;43153;50.984;18.204;2023-08-07T09:15:54;6.60;;;1.90;;
57309;SDS011;43153;50.984;18.204;2023-08-07T09:18:21;3.60;;;1.00;;
57309;SDS011;43153;50.984;18.204;2023-08-07T09:20:51;4.00;;;1.40;;
57309;SDS011;43153;50.984;18.204;2023-08-07T09:23:20;6.00;;;1.80;;
57309;SDS011;43153;50.984;18.204;2023-08-07T09:25:49;4.50;;;1.30;;
57309;SDS011;43153;50.984;18.204;2023-08-07T09:28:28;7.30;;;1.70;;
57309;SDS011;43153;50.984;18.204;2023-08-07T09:31:08;4.20;;;1.20;;
57309;SDS011;43153;50.984;18.204;2023-08-07T09:33:34;3.20;;;1.10;;
57309;SDS011;43153;50.984;18.204;2023-08-07T09:36:08;4.00;;;1.70;;
57309;SDS011;43153;50.984;18.204;2023-08-07T09:38:39;4.30;;;1.30;;
57309;SDS011;43153;50.984;18.204;2023-08-07T09:41:06;3.30;;;1.40;;
57309;SDS011;43153;50.984;18.204;2023-08-07T10:25:43;5.30;;;1.30;;
57309;SDS011;43153;50.984;18.204;2023-08-07T10:30:48;6.80;;;1.40;;
57309;SDS011;43153;50.984;18.204;2023-08-07T10:33:17;4.10;;;1.40;;
57309;SDS011;43153;50.984;18.204;2023-08-07T10:35:48;6.10;;;1.70;;
57309;SDS011;43153;50.984;18.204;2023-08-07T10:38:22;8.60;;;1.40;;
57309;SDS011;43153;50.984;18.204;2023-08-07T10:41:23;4.20;;;1.40;;
57309;SDS011;43153;50.984;18.204;2023-08-07T10:43:42;4.90;;;1.30;;
57309;SDS011;43153;50.984;18.204;2023-08-07T10:48:56;4.30;;;1.40;;
57309;SDS011;43153;50.984;18.204;2023-08-07T10:51:27;6.70;;;1.90;;
57309;SDS011;43153;50.984;18.204;2023-08-07T10:53:57;7.20;;;2.10;;
57309;SDS011;43153;50.984;18.204;2023-08-07T10:56:31;4.70;;;1.50;;
57309;SDS011;43153;50.984;18.204;2023-08-07T10:59:11;5.50;;;1.80;;
57309;SDS011;43153;50.984;18.204;2023-08-07T11:01:41;4.90;;;1.40;;
57309;SDS011;43153;50.984;18.204;2023-08-07T11:04:10;5.50;;;1.50;;
57309;SDS011;43153;50.984;18.204;2023-08-07T11:06:38;5.40;;;1.70;;
57309;SDS011;43153;50.984;18.204;2023-08-07T11:09:06;4.90;;;1.80;;
57309;SDS011;43153;50.984;18.204;2023-08-07T11:11:39;5.80;;;1.50;;
57309;SDS011;43153;50.984;18.204;2023-08-07T11:14:07;3.90;;;1.20;;
57309;SDS011;43153;50.984;18.204;2023-08-07T11:16:47;4.70;;;1.10;;
57309;SDS011;43153;50.984;18.204;2023-08-07T11:19:14;4.60;;;1.20;;
57309;SDS011;43153;50.984;18.204;2023-08-07T11:21:45;4.30;;;1.20;;
57309;SDS011;43153;50.984;18.204;2023-08-07T11:24:19;4.90;;;1.40;;
57309;SDS011;43153;50.984;18.204;2023-08-07T11:26:53;5.10;;;1.20;;
57309;SDS011;43153;50.984;18.204;2023-08-07T11:29:24;3.70;;;1.20;;
57309;SDS011;43153;50.984;18.204;2023-08-07T11:31:54;5.50;;;1.20;;
57309;SDS011;43153;50.984;18.204;2023-08-07T11:34:22;2.90;;;1.30;;
57309;SDS011;43153;50.984;18.204;2023-08-07T11:36:50;8.10;;;1.80;;
57309;SDS011;43153;50.984;18.204;2023-08-07T11:39:17;7.30;;;2.10;;
57309;SDS011;43153;50.984;18.204;2023-08-07T11:42:16;5.80;;;1.60;;
57309;SDS011;43153;50.984;18.204;2023-08-07T11:44:44;5.70;;;1.70;;
57309;SDS011;43153;50.984;18.204;2023-08-07T11:47:17;3.70;;;1.30;;
57309;SDS011;43153;50.984;18.204;2023-08-07T11:49:48;3.90;;;1.70;;
57309;SDS011;43153;50.984;18.204;2023-08-07T11:52:18;5.40;;;1.60;;
57309;SDS011;43153;50.984;18.204;2023-08-07T11:54:47;3.90;;;1.50;;
57309;SDS011;43153;50.984;18.204;2023-08-07T11:57:19;3.70;;;1.30;;
57309;SDS011;43153;50.984;18.204;2023-08-07T11:59:49;2.90;;;1.10;;
57309;SDS011;43153;50.984;18.204;2023-08-07T12:02:16;4.90;;;1.00;;
57309;SDS011;43153;50.984;18.204;2023-08-07T12:04:44;3.10;;;1.20;;
57309;SDS011;43153;50.984;18.204;2023-08-07T12:07:16;3.10;;;1.00;;
57309;SDS011;43153;50.984;18.204;2023-08-07T12:09:45;4.90;;;1.40;;
57309;SDS011;43153;50.984;18.204;2023-08-07T12:12:15;4.10;;;1.20;;
57309;SDS011;43153;50.984;18.204;2023-08-07T12:14:45;3.70;;;1.20;;
57309;SDS011;43153;50.984;18.204;2023-08-07T12:17:13;4.60;;;1.20;;
57309;SDS011;43153;50.984;18.204;2023-08-07T12:19:47;2.40;;;1.00;;
57309;SDS011;43153;50.984;18.204;2023-08-07T12:22:19;3.30;;;1.00;;
57309;SDS011;43153;50.984;18.204;2023-08-07T12:24:49;3.00;;;0.80;;
57309;SDS011;43153;50.984;18.204;2023-08-07T12:27:16;2.30;;;1.00;;
57309;SDS011;43153;50.984;18.204;2023-08-07T12:29:43;4.40;;;1.10;;
57309;SDS011;43153;50.984;18.204;2023-08-07T12:32:11;3.20;;;1.10;;
57309;SDS011;43153;50.984;18.204;2023-08-07T12:34:37;4.90;;;1.10;;
57309;SDS011;43153;50.984;18.204;2023-08-07T12:37:04;3.80;;;1.10;;
57309;SDS011;43153;50.984;18.204;2023-08-07T12:39:33;5.20;;;1.10;;
57309;SDS011;43153;50.984;18.204;2023-08-07T12:42:03;2.10;;;0.90;;
57309;SDS011;43153;50.984;18.204;2023-08-07T12:44:31;1.80;;;0.70;;
57309;SDS011;43153;50.984;18.204;2023-08-07T12:47:03;2.40;;;0.60;;
57309;SDS011;43153;50.984;18.204;2023-08-07T12:49:34;4.40;;;0.80;;
57309;SDS011;43153;50.984;18.204;2023-08-07T12:52:06;4.50;;;0.80;;
57309;SDS011;43153;50.984;18.204;2023-08-07T12:54:40;6.30;;;1.00;;
57309;SDS011;43153;50.984;18.204;2023-08-07T12:57:09;2.30;;;0.70;;
57309;SDS011;43153;50.984;18.204;2023-08-07T12:59:42;1.90;;;0.60;;
57309;SDS011;43153;50.984;18.204;2023-08-07T13:02:13;5.20;;;0.80;;
57309;SDS011;43153;50.984;18.204;2023-08-07T13:04:43;2.50;;;0.80;;
57309;SDS011;43153;50.984;18.204;2023-08-07T13:07:12;4.50;;;1.00;;
57309;SDS011;43153;50.984;18.204;2023-08-07T13:09:40;1.90;;;0.70;;
57309;SDS011;43153;50.984;18.204;2023-08-07T13:12:06;5.00;;;0.70;;
57309;SDS011;43153;50.984;18.204;2023-08-07T13:14:37;2.60;;;1.00;;
57309;SDS011;43153;50.984;18.204;2023-08-07T13:17:03;3.50;;;1.30;;
57309;SDS011;43153;50.984;18.204;2023-08-07T13:19:29;4.50;;;0.90;;
57309;SDS011;43153;50.984;18.204;2023-08-07T13:21:55;2.80;;;0.90;;
57309;SDS011;43153;50.984;18.204;2023-08-07T13:24:22;4.20;;;1.10;;
57309;SDS011;43153;50.984;18.204;2023-08-07T13:26:49;3.30;;;1.20;;
57309;SDS011;43153;50.984;18.204;2023-08-07T13:29:23;5.40;;;1.00;;
57309;SDS011;43153;50.984;18.204;2023-08-07T13:31:51;4.40;;;1.10;;
57309;SDS011;43153;50.984;18.204;2023-08-07T13:34:25;3.30;;;1.10;;
57309;SDS011;43153;50.984;18.204;2023-08-07T13:36:52;3.60;;;1.40;;
57309;SDS011;43153;50.984;18.204;2023-08-07T13:39:18;4.10;;;1.00;;
57309;SDS011;43153;50.984;18.204;2023-08-07T13:41:50;4.50;;;1.10;;
57309;SDS011;43153;50.984;18.204;2023-08-07T13:44:18;4.70;;;1.10;;
57309;SDS011;43153;50.984;18.204;2023-08-07T13:46:46;6.80;;;1.20;;
57309;SDS011;43153;50.984;18.204;2023-08-07T13:49:21;6.10;;;1.10;;
57309;SDS011;43153;50.984;18.204;2023-08-07T13:51:50;3.50;;;1.00;;
57309;SDS011;43153;50.984;18.204;2023-08-07T13:54:18;1.60;;;0.80;;
57309;SDS011;43153;50.984;18.204;2023-08-07T13:56:45;2.60;;;1.20;;
57309;SDS011;43153;50.984;18.204;2023-08-07T13:59:15;4.90;;;1.00;;
57309;SDS011;43153;50.984;18.204;2023-08-07T14:01:41;4.20;;;1.10;;
57309;SDS011;43153;50.984;18.204;2023-08-07T14:04:09;3.30;;;0.90;;
57309;SDS011;43153;50.984;18.204;2023-08-07T14:06:41;4.10;;;0.90;;
57309;SDS011;43153;50.984;18.204;2023-08-07T14:09:12;6.30;;;1.00;;
57309;SDS011;43153;50.984;18.204;2023-08-07T14:11:39;3.50;;;0.90;;
57309;SDS011;43153;50.984;18.204;2023-08-07T14:14:05;2.40;;;1.00;;
57309;SDS011;43153;50.984;18.204;2023-08-07T14:16:40;2.60;;;0.70;;
57309;SDS011;43153;50.984;18.204;2023-08-07T14:19:07;2.90;;;1.10;;
57309;SDS011;43153;50.984;18.204;2023-08-07T14:21:40;2.90;;;0.90;;
57309;SDS011;43153;50.984;18.204;2023-08-07T14:24:08;2.40;;;0.90;;
57309;SDS011;43153;50.984;18.204;2023-08-07T14:26:35;5.10;;;1.20;;
57309;SDS011;43153;50.984;18.204;2023-08-07T14:29:04;3.30;;;1.30;;
57309;SDS011;43153;50.984;18.204;2023-08-07T14:31:30;4.20;;;0.60;;
57309;SDS011;43153;50.984;18.204;2023-08-07T14:33:56;3.80;;;0.70;;
57309;SDS011;43153;50.984;18.204;2023-08-07T14:36:23;1.60;;;0.40;;
57309;SDS011;43153;50.984;18.204;2023-08-07T14:38:50;2.20;;;0.80;;
57309;SDS011;43153;50.984;18.204;2023-08-07T14:41:18;1.60;;;0.60;;
57309;SDS011;43153;50.984;18.204;2023-08-07T14:43:47;3.30;;;0.60;;
57309;SDS011;43153;50.984;18.204;2023-08-07T14:46:16;7.10;;;0.80;;
57309;SDS011;43153;50.984;18.204;2023-08-07T14:48:45;2.60;;;0.80;;
57309;SDS011;43153;50.984;18.204;2023-08-07T14:51:13;1.70;;;0.50;;
57309;SDS011;43153;50.984;18.204;2023-08-07T14:53:40;2.80;;;0.70;;
57309;SDS011;43153;50.984;18.204;2023-08-07T14:56:10;2.30;;;0.80;;
57309;SDS011;43153;50.984;18.204;2023-08-07T14:58:37;3.20;;;0.80;;
57309;SDS011;43153;50.984;18.204;2023-08-07T15:01:07;2.30;;;0.80;;
57309;SDS011;43153;50.984;18.204;2023-08-07T15:03:42;3.20;;;0.60;;
57309;SDS011;43153;50.984;18.204;2023-08-07T15:06:08;4.90;;;1.10;;
57309;SDS011;43153;50.984;18.204;2023-08-07T15:08:34;3.20;;;0.80;;
57309;SDS011;43153;50.984;18.204;2023-08-07T15:11:01;2.20;;;0.70;;
57309;SDS011;43153;50.984;18.204;2023-08-07T15:13:28;2.00;;;0.70;;
57309;SDS011;43153;50.984;18.204;2023-08-07T15:15:54;3.30;;;0.80;;
57309;SDS011;43153;50.984;18.204;2023-08-07T15:18:26;2.60;;;0.70;;
57309;SDS011;43153;50.984;18.204;2023-08-07T15:20:54;2.40;;;0.60;;
57309;SDS011;43153;50.984;18.204;2023-08-07T15:23:37;3.10;;;0.90;;
57309;SDS011;43153;50.984;18.204;2023-08-07T15:26:07;4.90;;;0.90;;
57309;SDS011;43153;50.984;18.204;2023-08-07T15:28:36;2.50;;;0.80;;
57309;SDS011;43153;50.984;18.204;2023-08-07T15:31:03;3.50;;;0.90;;
57309;SDS011;43153;50.984;18.204;2023-08-07T15:33:29;3.80;;;0.90;;
57309;SDS011;43153;50.984;18.204;2023-08-07T15:36:01;2.30;;;0.80;;